createdAt,value
2022-10-24T00:00:07.662Z,100210.44
2022-10-24T00:01:15.292Z,100206.19
2022-10-24T00:02:19.940Z,100207.55
2022-10-24T00:03:24.423Z,100210.56
2022-10-24T00:04:27.904Z,100208.62
2022-10-24T00:05:31.305Z,100212.38
2022-10-24T00:06:34.694Z,100206.19
2022-10-24T00:07:38.107Z,100203.91
2022-10-24T00:08:42.122Z,100210.94
2022-10-24T00:09:46.474Z,100207.66
2022-10-24T00:10:52.002Z,100210.09
2022-10-24T00:11:55.887Z,100209.02
2022-10-24T00:12:58.551Z,100210.09
2022-10-24T00:14:06.286Z,100206.46
2022-10-24T00:15:09.849Z,100208.51
2022-10-24T00:16:13.446Z,100213.48
2022-10-24T00:17:16.233Z,100210.58
2022-10-24T00:18:19.736Z,100209.73
2022-10-24T00:19:24.107Z,100210.47
2022-10-24T00:20:27.999Z,100207.64
2022-10-24T00:21:31.504Z,100208.77
2022-10-24T00:22:38.164Z,100208.03
2022-10-24T00:23:41.322Z,100202.20
2022-10-24T00:24:43.680Z,100203.05
2022-10-24T00:25:47.196Z,100205.61
2022-10-24T00:26:50.282Z,100196.87
2022-10-24T00:27:52.444Z,100204.75
2022-10-24T00:28:56.700Z,100206.22
2022-10-24T00:29:59.327Z,100214.95
2022-10-24T00:31:02.625Z,100206.09
2022-10-24T00:32:06.738Z,100217.36
2022-10-24T00:33:10.151Z,100221.84
2022-10-24T00:34:13.563Z,100210.22
2022-10-24T00:35:16.995Z,100214.70
2022-10-24T00:36:22.663Z,100215.05
2022-10-24T00:37:25.928Z,100210.69
2022-10-24T00:38:29.463Z,100211.42
2022-10-24T00:39:33.630Z,100206.67
2022-10-24T00:40:36.259Z,100207.64
2022-10-24T00:41:42.614Z,100207.48
2022-10-24T00:42:47.233Z,100205.67
2022-10-24T00:43:50.706Z,100208.71
2022-10-24T00:44:53.624Z,100201.18
2022-10-24T00:45:58.166Z,100199.71
2022-10-24T00:47:05.536Z,100194.88
2022-10-24T00:48:20.902Z,100201.91
2022-10-24T00:49:25.047Z,100197.38
2022-10-24T00:50:30.538Z,100201.86
2022-10-24T00:51:34.292Z,100204.52
2022-10-24T00:52:39.885Z,100204.90
2022-10-24T00:53:45.313Z,100210.45
2022-10-24T00:54:49.866Z,100212.38
2022-10-24T00:55:55.105Z,100210.05
2022-10-24T00:57:02.992Z,100215.47
2022-10-24T00:58:07.532Z,100208.11
2022-10-24T00:59:11.719Z,100213.03
2022-10-24T01:00:17.404Z,100216.28
2022-10-24T01:01:21.020Z,100219.55
2022-10-24T01:02:25.500Z,100215.77
2022-10-24T01:03:29.037Z,100224.50
2022-10-24T01:04:34.041Z,100220.13
2022-10-24T01:05:39.284Z,100223.64
2022-10-24T01:06:50.095Z,100225.56
2022-10-24T01:07:55.474Z,100228.23
2022-10-24T01:09:09.854Z,100226.42
2022-10-24T01:10:16.714Z,100220.24
2022-10-24T01:11:21.878Z,100222.91
2022-10-24T01:12:29.360Z,100214.06
2022-10-24T01:13:34.839Z,100216.84
2022-10-24T01:14:45.124Z,100220.83
2022-10-24T01:15:50.729Z,100215.98
2022-10-24T01:17:07.919Z,100217.20
2022-10-24T01:18:12.291Z,100221.53
2022-10-24T01:19:16.378Z,100221.42
2022-10-24T01:20:39.327Z,100218.43
2022-10-24T01:21:46.575Z,100216.62
2022-10-24T01:23:07.000Z,100218.43
2022-10-24T01:24:12.177Z,100218.20
2022-10-24T01:25:16.307Z,100217.25
2022-10-24T01:26:23.677Z,100213.63
2022-10-24T01:27:44.695Z,100218.20
2022-10-24T01:28:56.394Z,100211.18
2022-10-24T01:30:04.493Z,100216.17
2022-10-24T01:31:12.482Z,100218.95
2022-10-24T01:32:17.449Z,100212.03
2022-10-24T01:33:28.472Z,100223.13
2022-10-24T01:34:36.438Z,100225.52
2022-10-24T01:35:40.599Z,100232.77
2022-10-24T01:36:45.566Z,100230.52
2022-10-24T01:37:51.941Z,100227.12
2022-10-24T01:38:56.023Z,100235.33
2022-10-24T01:40:01.316Z,100230.63
2022-10-24T01:41:09.833Z,100227.60
2022-10-24T01:42:16.774Z,100230.63
2022-10-24T01:43:29.765Z,100231.92
2022-10-24T01:44:35.296Z,100226.70
2022-10-24T01:45:41.505Z,100227.97
2022-10-24T01:46:50.269Z,100227.72
2022-10-24T01:47:56.139Z,100239.69
2022-10-24T01:49:03.284Z,100232.66
2022-10-24T01:50:08.455Z,100235.10
2022-10-24T01:51:13.600Z,100236.06
2022-10-24T01:52:17.851Z,100239.58
2022-10-24T01:53:24.950Z,100235.84
2022-10-24T01:54:28.241Z,100226.16
2022-10-24T01:55:34.391Z,100229.67
2022-10-24T01:56:40.574Z,100230.05
2022-10-24T01:57:44.084Z,100234.92
2022-10-24T01:58:49.050Z,100233.22
2022-10-24T01:59:54.333Z,100228.97
2022-10-24T02:00:59.864Z,100228.64
2022-10-24T02:02:05.205Z,100233.96
2022-10-24T02:03:18.320Z,100226.56
2022-10-24T02:04:23.485Z,100225.23
2022-10-24T02:05:27.511Z,100225.02
2022-10-24T02:06:33.951Z,100223.80
2022-10-24T02:07:38.816Z,100221.13
2022-10-24T02:08:46.801Z,100221.13
2022-10-24T02:09:51.987Z,100229.52
2022-10-24T02:10:58.521Z,100221.90
2022-10-24T02:12:02.237Z,100214.05
2022-10-24T02:13:10.991Z,100220.59
2022-10-24T02:14:18.681Z,100230.37
2022-10-24T02:15:23.707Z,100239.66
2022-10-24T02:16:27.537Z,100229.12
2022-10-24T02:17:30.733Z,100233.78
2022-10-24T02:18:35.172Z,100234.63
2022-10-24T02:19:39.304Z,100231.34
2022-10-24T02:20:46.662Z,100236.38
2022-10-24T02:21:54.763Z,100245.36
2022-10-24T02:23:01.714Z,100240.52
2022-10-24T02:24:23.186Z,100237.84
2022-10-24T02:25:27.436Z,100242.22
2022-10-24T02:26:33.545Z,100242.55
2022-10-24T02:27:42.549Z,100241.03
2022-10-24T02:28:48.079Z,100233.04
2022-10-24T02:29:54.821Z,100235.36
2022-10-24T02:31:03.747Z,100237.29
2022-10-24T02:32:08.927Z,100238.88
2022-10-24T02:33:12.950Z,100227.97
2022-10-24T02:34:18.550Z,100234.63
2022-10-24T02:35:24.778Z,100237.88
2022-10-24T02:36:30.265Z,100226.78
2022-10-24T02:37:34.908Z,100231.88
2022-10-24T02:38:42.185Z,100223.03
2022-10-24T02:39:49.483Z,100229.55
2022-10-24T02:40:58.787Z,100227.97
2022-10-24T02:42:03.875Z,100227.74
2022-10-24T02:43:10.832Z,100223.37
2022-10-24T02:44:16.107Z,100226.78
2022-10-24T02:45:19.508Z,100223.60
2022-10-24T02:46:24.474Z,100226.27
2022-10-24T02:47:30.218Z,100240.69
2022-10-24T02:48:34.828Z,100238.92
2022-10-24T02:49:37.277Z,100240.91
2022-10-24T02:50:41.466Z,100244.90
2022-10-24T02:51:47.986Z,100247.27
2022-10-24T02:52:51.353Z,100253.91
2022-10-24T02:53:58.619Z,100245.50
2022-10-24T02:55:02.262Z,100243.91
2022-10-24T02:56:05.931Z,100254.88
2022-10-24T02:57:09.447Z,100256.41
2022-10-24T02:58:12.731Z,100255.34
2022-10-24T02:59:16.027Z,100251.84
2022-10-24T03:00:19.466Z,100253.44
2022-10-24T03:01:22.952Z,100253.54
2022-10-24T03:02:26.553Z,100251.13
2022-10-24T03:03:31.207Z,100255.59
2022-10-24T03:04:36.120Z,100253.78
2022-10-24T03:05:39.271Z,100254.84
2022-10-24T03:06:43.176Z,100258.36
2022-10-24T03:07:46.796Z,100252.30
2022-10-24T03:08:49.778Z,100258.57
2022-10-24T03:09:52.957Z,100253.17
2022-10-24T03:10:56.577Z,100253.81
2022-10-24T03:12:00.500Z,100256.47
2022-10-24T03:13:04.527Z,100259.34
2022-10-24T03:14:06.989Z,100259.55
2022-10-24T03:15:10.180Z,100266.77
2022-10-24T03:16:14.305Z,100259.97
2022-10-24T03:17:18.235Z,100264.43
2022-10-24T03:18:22.124Z,100273.36
2022-10-24T03:19:25.232Z,100266.23
2022-10-24T03:20:28.644Z,100261.88
2022-10-24T03:21:31.938Z,100262.41
2022-10-24T03:22:34.391Z,100264.12
2022-10-24T03:23:37.701Z,100258.70
2022-10-24T03:24:44.223Z,100258.70
2022-10-24T03:25:47.725Z,100264.09
2022-10-24T03:26:51.857Z,100267.94
2022-10-24T03:27:54.742Z,100273.15
2022-10-24T03:28:57.101Z,100270.25
2022-10-24T03:29:59.970Z,100270.48
2022-10-24T03:31:03.373Z,100265.48
2022-10-24T03:32:07.106Z,100266.73
2022-10-24T03:33:11.529Z,100266.84
2022-10-24T03:34:14.940Z,100274.11
2022-10-24T03:35:18.759Z,100268.23
2022-10-24T03:36:26.130Z,100267.37
2022-10-24T03:37:29.738Z,100266.41
2022-10-24T03:38:33.660Z,100270.67
2022-10-24T03:39:42.634Z,100267.91
2022-10-24T03:41:48.771Z,100272.48
2022-10-24T03:42:52.891Z,100267.16
2022-10-24T03:43:56.082Z,100270.56
2022-10-24T03:45:00.224Z,100265.77
2022-10-24T03:46:06.370Z,100261.05
2022-10-24T03:47:09.415Z,100266.09
2022-10-24T03:48:12.518Z,100268.75
2022-10-24T03:49:15.802Z,100264.18
2022-10-24T03:50:20.595Z,100265.14
2022-10-24T03:51:23.962Z,100261.84
2022-10-24T03:52:28.918Z,100262.05
2022-10-24T03:53:31.398Z,100268.23
2022-10-24T03:54:36.041Z,100266.41
2022-10-24T03:55:39.233Z,100261.73
2022-10-24T03:56:48.275Z,100265.24
2022-10-24T03:57:51.686Z,100264.39
2022-10-24T03:58:58.148Z,100266.84
2022-10-24T04:00:06.169Z,100265.77
2022-10-24T04:01:11.879Z,100269.61
2022-10-24T04:02:15.199Z,100267.58
2022-10-24T04:03:18.747Z,100271.52
2022-10-24T04:04:21.696Z,100268.75
2022-10-24T04:05:25.653Z,100266.84
2022-10-24T04:06:31.339Z,100273.86
2022-10-24T04:07:35.233Z,100266.84
2022-10-24T04:08:38.435Z,100265.67
2022-10-24T04:09:41.826Z,100271.59
2022-10-24T04:10:44.399Z,100266.16
2022-10-24T04:11:50.933Z,100266.91
2022-10-24T04:12:56.423Z,100270.41
2022-10-24T04:15:06.079Z,100273.61
2022-10-24T04:16:10.268Z,100272.75
2022-10-24T04:17:13.564Z,100279.78
2022-10-24T04:18:15.848Z,100283.19
2022-10-24T04:19:19.334Z,100277.12
2022-10-24T04:20:24.497Z,100276.91
2022-10-24T04:21:27.898Z,100275.80
2022-10-24T04:22:31.403Z,100281.02
2022-10-24T04:23:41.558Z,100276.44
2022-10-24T04:24:45.765Z,100285.38
2022-10-24T04:25:52.676Z,100287.83
2022-10-24T04:26:58.137Z,100288.78
2022-10-24T04:28:01.889Z,100286.97
2022-10-24T04:29:05.250Z,100286.54
2022-10-24T04:30:15.516Z,100282.06
2022-10-24T04:31:18.160Z,100285.80
2022-10-24T04:32:21.028Z,100286.54
2022-10-24T04:33:25.787Z,100286.65
2022-10-24T04:34:30.445Z,100283.77
2022-10-24T04:35:34.618Z,100288.10
2022-10-24T04:36:37.346Z,100283.63
2022-10-24T04:37:40.635Z,100286.54
2022-10-24T04:38:43.938Z,100284.73
2022-10-24T04:39:47.158Z,100293.67
2022-10-24T04:40:52.400Z,100289.31
2022-10-24T04:41:56.682Z,100292.08
2022-10-24T04:42:59.930Z,100294.53
2022-10-24T04:44:03.342Z,100290.05
2022-10-24T04:45:07.998Z,100290.77
2022-10-24T04:46:11.296Z,100296.09
2022-10-24T04:47:14.827Z,100296.83
2022-10-24T04:48:21.284Z,100301.41
2022-10-24T04:49:28.376Z,100300.45
2022-10-24T04:50:32.939Z,100308.33
2022-10-24T04:51:36.442Z,100306.62
2022-10-24T04:52:40.851Z,100311.95
2022-10-24T04:53:43.870Z,100316.42
2022-10-24T04:54:47.199Z,100313.66
2022-10-24T04:55:49.933Z,100316.21
2022-10-24T04:56:53.238Z,100318.87
2022-10-24T04:57:57.255Z,100313.55
2022-10-24T04:59:00.443Z,100320.99
2022-10-24T05:00:04.902Z,100326.92
2022-10-24T05:01:08.334Z,100320.30
2022-10-24T05:02:11.947Z,100316.68
2022-10-24T05:03:15.194Z,100324.56
2022-10-24T05:04:19.651Z,100330.62
2022-10-24T05:05:22.600Z,100332.22
2022-10-24T05:06:26.117Z,100327.60
2022-10-24T05:07:30.469Z,100328.34
2022-10-24T05:08:33.734Z,100324.39
2022-10-24T05:09:38.115Z,100336.75
2022-10-24T05:10:44.336Z,100338.23
2022-10-24T05:11:47.726Z,100336.05
2022-10-24T05:12:52.250Z,100335.72
2022-10-24T05:13:55.580Z,100331.13
2022-10-24T05:14:59.087Z,100332.61
2022-10-24T05:16:01.622Z,100333.20
2022-10-24T05:17:05.057Z,100338.08
2022-10-24T05:18:08.452Z,100335.86
2022-10-24T05:19:14.558Z,100334.42
2022-10-24T05:20:18.387Z,100338.90
2022-10-24T05:21:21.675Z,100339.64
2022-10-24T05:22:25.123Z,100342.90
2022-10-24T05:23:27.545Z,100344.12
2022-10-24T05:24:30.321Z,100341.45
2022-10-24T05:25:33.489Z,100337.83
2022-10-24T05:26:37.737Z,100340.23
2022-10-24T05:27:40.208Z,100338.83
2022-10-24T05:28:43.719Z,100339.34
2022-10-24T05:29:47.728Z,100342.37
2022-10-24T05:30:50.083Z,100340.33
2022-10-24T05:31:53.275Z,100338.63
2022-10-24T05:32:57.106Z,100340.10
2022-10-24T05:33:59.460Z,100334.42
2022-10-24T05:35:02.647Z,100334.82
2022-10-24T05:36:06.686Z,100343.05
2022-10-24T05:37:11.114Z,100339.64
2022-10-24T05:38:14.378Z,100346.80
2022-10-24T05:39:18.060Z,100347.30
2022-10-24T05:40:21.429Z,100341.97
2022-10-24T05:41:25.139Z,100336.30
2022-10-24T05:42:30.102Z,100343.55
2022-10-24T05:43:34.765Z,100342.10
2022-10-24T05:44:38.154Z,100349.02
2022-10-24T05:45:41.709Z,100345.50
2022-10-24T05:46:45.060Z,100344.54
2022-10-24T05:47:48.405Z,100349.88
2022-10-24T05:48:53.439Z,100350.72
2022-10-24T05:49:56.840Z,100344.08
2022-10-24T05:51:00.419Z,100351.85
2022-10-24T05:52:03.879Z,100356.81
2022-10-24T05:53:09.371Z,100345.05
2022-10-24T05:55:18.074Z,100356.58
2022-10-24T05:56:20.794Z,100353.45
2022-10-24T05:57:24.403Z,100353.18
2022-10-24T05:58:28.325Z,100352.21
2022-10-24T05:59:32.667Z,100359.88
2022-10-24T06:00:36.174Z,100351.52
2022-10-24T06:01:39.727Z,100360.84
2022-10-24T06:02:43.571Z,100358.44
2022-10-24T06:03:47.198Z,100353.09
2022-10-24T06:04:50.506Z,100359.98
2022-10-24T06:05:54.355Z,100366.91
2022-10-24T06:06:57.827Z,100362.07
2022-10-24T06:08:02.378Z,100362.56
2022-10-24T06:09:05.598Z,100364.12
2022-10-24T06:10:09.704Z,100359.52
2022-10-24T06:11:13.847Z,100362.06
2022-10-24T06:12:17.545Z,100364.38
2022-10-24T06:13:19.892Z,100363.41
2022-10-24T06:14:23.999Z,100362.44
2022-10-24T06:15:28.827Z,100362.20
2022-10-24T06:16:32.226Z,100368.39
2022-10-24T06:17:34.550Z,100368.85
2022-10-24T06:18:39.087Z,100366.91
2022-10-24T06:19:42.863Z,100367.88
2022-10-24T06:20:46.201Z,100366.31
2022-10-24T06:21:48.985Z,100376.37
2022-10-24T06:22:53.332Z,100376.98
2022-10-24T06:23:55.986Z,100366.30
2022-10-24T06:25:03.106Z,100372.61
2022-10-24T06:26:10.410Z,100374.80
2022-10-24T06:27:14.030Z,100376.71
2022-10-24T06:28:17.640Z,100369.91
2022-10-24T06:29:21.668Z,100373.19
2022-10-24T06:30:25.071Z,100375.45
2022-10-24T06:31:28.678Z,100377.03
2022-10-24T06:32:31.862Z,100377.76
2022-10-24T06:33:35.793Z,100371.31
2022-10-24T06:34:39.402Z,100383.83
2022-10-24T06:35:43.723Z,100373.39
2022-10-24T06:36:46.927Z,100386.63
2022-10-24T06:37:49.615Z,100380.91
2022-10-24T06:38:54.883Z,100382.81
2022-10-24T06:39:58.151Z,100382.88
2022-10-24T06:41:02.519Z,100377.38
2022-10-24T06:42:10.919Z,100371.97
2022-10-24T06:43:14.323Z,100381.03
2022-10-24T06:44:17.598Z,100375.95
2022-10-24T06:45:22.389Z,100378.06
2022-10-24T06:46:25.397Z,100376.73
2022-10-24T06:47:28.761Z,100378.44
2022-10-24T06:48:33.322Z,100379.21
2022-10-24T06:49:36.504Z,100379.04
2022-10-24T06:50:41.127Z,100379.76
2022-10-24T06:51:43.800Z,100381.84
2022-10-24T06:52:46.982Z,100393.09
2022-10-24T06:53:50.323Z,100385.42
2022-10-24T06:54:53.725Z,100388.35
2022-10-24T06:55:58.838Z,100391.16
2022-10-24T06:57:01.466Z,100395.35
2022-10-24T06:58:07.254Z,100393.91
2022-10-24T06:59:11.530Z,100393.66
2022-10-24T07:00:17.802Z,100396.70
2022-10-24T07:01:23.895Z,100392.52
2022-10-24T07:02:26.855Z,100391.73
2022-10-24T07:03:29.274Z,100398.91
2022-10-24T07:04:32.790Z,100394.98
2022-10-24T07:05:37.806Z,100392.30
2022-10-24T07:06:41.773Z,100394.78
2022-10-24T07:07:45.681Z,100394.19
2022-10-24T07:08:49.839Z,100395.10
2022-10-24T07:09:57.512Z,100398.91
2022-10-24T07:11:00.818Z,100396.11
2022-10-24T07:12:04.323Z,100387.16
2022-10-24T07:13:06.563Z,100381.45
2022-10-24T07:14:12.996Z,100390.23
2022-10-24T07:15:17.464Z,100381.71
2022-10-24T07:16:20.118Z,100382.54
2022-10-24T07:17:23.937Z,100379.20
2022-10-24T07:18:27.397Z,100381.73
2022-10-24T07:19:34.005Z,100383.03
2022-10-24T07:20:36.548Z,100379.73
2022-10-24T07:21:42.030Z,100383.42
2022-10-24T07:22:45.138Z,100393.29
2022-10-24T07:23:53.155Z,100377.09
2022-10-24T07:24:58.498Z,100392.37
2022-10-24T07:26:04.721Z,100389.43
2022-10-24T07:27:07.755Z,100391.12
2022-10-24T07:28:11.911Z,100385.64
2022-10-24T07:29:16.929Z,100381.69
2022-10-24T07:30:19.773Z,100390.25
2022-10-24T07:31:23.487Z,100388.92
2022-10-24T07:32:26.747Z,100393.42
2022-10-24T07:33:31.327Z,100391.98
2022-10-24T07:34:35.776Z,100398.03
2022-10-24T07:35:43.042Z,100395.48
2022-10-24T07:36:47.319Z,100397.13
2022-10-24T07:37:50.270Z,100394.52
2022-10-24T07:38:55.657Z,100394.00
2022-10-24T07:39:59.057Z,100391.19
2022-10-24T07:41:08.835Z,100397.27
2022-10-24T07:42:12.648Z,100400.38
2022-10-24T07:43:16.258Z,100404.75
2022-10-24T07:44:19.541Z,100400.97
2022-10-24T07:45:23.672Z,100408.53
2022-10-24T07:46:27.606Z,100401.09
2022-10-24T07:47:30.903Z,100409.25
2022-10-24T07:48:37.520Z,100406.41
2022-10-24T07:49:40.315Z,100409.29
2022-10-24T07:50:45.281Z,100413.37
2022-10-24T07:51:49.510Z,100404.23
2022-10-24T07:52:53.132Z,100411.34
2022-10-24T07:53:58.711Z,100405.47
2022-10-24T07:55:03.167Z,100404.23
2022-10-24T07:56:12.919Z,100408.23
2022-10-24T07:57:16.339Z,100404.32
2022-10-24T07:58:20.052Z,100398.16
2022-10-24T07:59:40.618Z,100392.97
2022-10-24T08:00:27.899Z,100403.03
2022-10-24T08:01:31.776Z,100394.02
2022-10-24T08:02:35.146Z,100397.22
2022-10-24T08:03:39.864Z,100393.30
2022-10-24T08:04:43.056Z,100400.45
2022-10-24T08:05:49.076Z,100391.98
2022-10-24T08:06:52.688Z,100393.45
2022-10-24T08:08:00.290Z,100384.50
2022-10-24T08:09:03.597Z,100383.39
2022-10-24T08:10:10.229Z,100385.61
2022-10-24T08:11:15.378Z,100383.46
2022-10-24T08:12:18.558Z,100380.52
2022-10-24T08:13:22.623Z,100391.50
2022-10-24T08:14:28.632Z,100393.16
2022-10-24T08:15:33.357Z,100387.19
2022-10-24T08:16:38.533Z,100389.86
2022-10-24T08:17:41.837Z,100392.13
2022-10-24T08:18:49.035Z,100391.56
2022-10-24T08:19:52.283Z,100394.96
2022-10-24T08:21:03.740Z,100388.30
2022-10-24T08:22:06.958Z,100389.14
2022-10-24T08:23:11.371Z,100387.70
2022-10-24T08:24:14.672Z,100397.18
2022-10-24T08:25:18.383Z,100392.93
2022-10-24T08:26:23.613Z,100398.62
2022-10-24T08:27:27.645Z,100399.48
2022-10-24T08:28:30.839Z,100392.17
2022-10-24T08:29:36.070Z,100403.13
2022-10-24T08:30:40.390Z,100398.88
2022-10-24T08:31:43.373Z,100400.92
2022-10-24T08:32:48.028Z,100392.93
2022-10-24T08:33:55.517Z,100397.47
2022-10-24T08:34:59.109Z,100397.55
2022-10-24T08:36:04.295Z,100397.97
2022-10-24T08:37:09.567Z,100401.36
2022-10-24T08:38:12.757Z,100397.58
2022-10-24T08:39:17.626Z,100396.72
2022-10-24T08:40:22.684Z,100399.11
2022-10-24T08:41:28.676Z,100401.17
2022-10-24T08:42:32.219Z,100402.14
2022-10-24T08:43:35.725Z,100398.48
2022-10-24T08:44:40.959Z,100402.14
2022-10-24T08:45:50.453Z,100401.94
2022-10-24T08:47:01.802Z,100399.34
2022-10-24T08:48:13.644Z,100401.56
2022-10-24T08:49:30.896Z,100400.84
2022-10-24T08:50:34.461Z,100403.27
2022-10-24T08:51:44.849Z,100405.42
2022-10-24T08:52:50.034Z,100411.50
2022-10-24T08:53:56.035Z,100407.69
2022-10-24T08:55:04.820Z,100404.62
2022-10-24T08:56:07.328Z,100408.73
2022-10-24T08:57:11.460Z,100408.61
2022-10-24T08:58:19.666Z,100408.19
2022-10-24T08:59:25.707Z,100409.59
2022-10-24T09:00:32.639Z,100402.27
2022-10-24T09:01:44.319Z,100408.06
2022-10-24T09:02:49.497Z,100410.09
2022-10-24T09:03:56.941Z,100405.58
2022-10-24T09:04:59.495Z,100412.21
2022-10-24T09:06:04.787Z,100400.09
2022-10-24T09:07:13.017Z,100405.74
2022-10-24T09:08:21.705Z,100402.54
2022-10-24T09:09:31.482Z,100401.66
2022-10-24T09:10:39.279Z,100397.55
2022-10-24T09:11:52.881Z,100396.36
2022-10-24T09:12:57.399Z,100393.13
2022-10-24T09:14:05.346Z,100396.30
2022-10-24T09:15:11.527Z,100397.05
2022-10-24T09:16:18.598Z,100391.12
2022-10-24T09:17:26.619Z,100393.02
2022-10-24T09:18:32.774Z,100393.03
2022-10-24T09:19:36.254Z,100394.33
2022-10-24T09:20:39.487Z,100392.52
2022-10-24T09:21:45.024Z,100386.11
2022-10-24T09:22:47.879Z,100391.19
2022-10-24T09:23:51.524Z,100393.17
2022-10-24T09:25:05.299Z,100396.42
2022-10-24T09:26:12.323Z,100390.06
2022-10-24T09:27:17.548Z,100403.49
2022-10-24T09:28:22.882Z,100391.14
2022-10-24T09:29:27.015Z,100403.30
2022-10-24T09:30:32.994Z,100405.73
2022-10-24T09:31:35.998Z,100401.81
2022-10-24T09:32:40.958Z,100403.34
2022-10-24T09:33:48.742Z,100407.73
2022-10-24T09:34:52.791Z,100403.07
2022-10-24T09:35:59.208Z,100407.16
2022-10-24T09:37:01.888Z,100410.98
2022-10-24T09:38:25.558Z,100410.56
2022-10-24T09:39:31.880Z,100407.03
2022-10-24T09:40:36.860Z,100408.69
2022-10-24T09:41:40.245Z,100401.34
2022-10-24T09:42:47.395Z,100396.83
2022-10-24T09:43:57.596Z,100406.58
2022-10-24T09:45:04.256Z,100395.98
2022-10-24T09:46:14.349Z,100391.88
2022-10-24T09:47:25.752Z,100397.41
2022-10-24T09:48:33.098Z,100392.76
2022-10-24T09:49:37.670Z,100395.86
2022-10-24T09:50:42.743Z,100399.55
2022-10-24T09:51:49.568Z,100397.54
2022-10-24T09:52:54.279Z,100398.82
2022-10-24T09:53:59.429Z,100400.22
2022-10-24T09:55:06.580Z,100390.92
2022-10-24T09:56:11.566Z,100392.34
2022-10-24T09:57:19.729Z,100388.78
2022-10-24T09:58:26.684Z,100393.19
2022-10-24T09:59:34.672Z,100395.70
2022-10-24T10:00:38.007Z,100397.84
2022-10-24T10:01:43.575Z,100393.73
2022-10-24T10:03:03.508Z,100396.13
2022-10-24T10:04:10.023Z,100392.70
2022-10-24T10:05:21.019Z,100388.31
2022-10-24T10:06:25.124Z,100386.85
2022-10-24T10:07:29.630Z,100387.83
2022-10-24T10:08:34.716Z,100380.07
2022-10-24T10:09:40.127Z,100382.61
2022-10-24T10:10:44.653Z,100388.45
2022-10-24T10:12:02.035Z,100381.42
2022-10-24T10:12:55.718Z,100393.58
2022-10-24T10:14:01.039Z,100387.05
2022-10-24T10:15:07.159Z,100389.30
2022-10-24T10:16:15.831Z,100392.30
2022-10-24T10:17:20.527Z,100383.09
2022-10-24T10:18:28.296Z,100394.59
2022-10-24T10:19:33.423Z,100388.66
2022-10-24T10:20:40.948Z,100393.45
2022-10-24T10:22:01.741Z,100392.74
2022-10-24T10:23:24.932Z,100385.11
2022-10-24T10:24:42.535Z,100385.42
2022-10-24T10:25:46.146Z,100394.73
2022-10-24T10:26:48.606Z,100399.68
2022-10-24T10:27:52.111Z,100397.55
2022-10-24T10:28:59.888Z,100393.58
2022-10-24T10:30:16.399Z,100402.46
2022-10-24T10:31:22.846Z,100394.42
2022-10-24T10:32:28.171Z,100393.70
2022-10-24T10:33:38.225Z,100401.00
2022-10-24T10:34:42.283Z,100397.30
2022-10-24T10:35:48.387Z,100398.26
2022-10-24T10:37:05.285Z,100395.51
2022-10-24T10:38:15.364Z,100399.30
2022-10-24T10:39:36.307Z,100402.75
2022-10-24T10:40:50.280Z,100396.67
2022-10-24T10:43:03.012Z,100393.59
2022-10-24T10:44:11.575Z,100393.75
2022-10-24T10:45:34.468Z,100386.69
2022-10-24T10:46:40.995Z,100384.41
2022-10-24T10:47:48.261Z,100381.18
2022-10-24T10:48:58.450Z,100375.95
2022-10-24T10:50:02.797Z,100376.62
2022-10-24T10:51:10.166Z,100382.83
2022-10-24T10:52:14.395Z,100383.28
2022-10-24T10:53:36.795Z,100383.14
2022-10-24T10:54:54.089Z,100385.77
2022-10-24T10:56:06.474Z,100392.22
2022-10-24T10:57:11.032Z,100393.06
2022-10-24T10:58:22.580Z,100387.67
2022-10-24T10:59:43.097Z,100393.03
2022-10-24T11:00:54.450Z,100398.06
2022-10-24T11:02:02.927Z,100387.48
2022-10-24T11:03:27.987Z,100387.55
2022-10-24T11:04:33.363Z,100387.70
2022-10-24T11:05:40.417Z,100380.25
2022-10-24T11:06:44.769Z,100383.73
2022-10-24T11:07:56.650Z,100378.03
2022-10-24T11:09:08.375Z,100379.03
2022-10-24T11:10:13.651Z,100380.80
2022-10-24T11:11:18.947Z,100372.45
2022-10-24T11:12:40.308Z,100374.00
2022-10-24T11:13:46.001Z,100377.35
2022-10-24T11:14:56.792Z,100380.86
2022-10-24T11:16:03.153Z,100384.71
2022-10-24T11:17:21.071Z,100390.47
2022-10-24T11:20:07.981Z,100385.56
2022-10-24T11:21:15.237Z,100386.95
2022-10-24T11:22:32.643Z,100391.47
2022-10-24T11:24:03.125Z,100395.90
2022-10-24T11:25:10.759Z,100390.10
2022-10-24T11:26:22.612Z,100385.44
2022-10-24T11:27:38.144Z,100379.95
2022-10-24T11:29:02.539Z,100374.19
2022-10-24T11:30:15.238Z,100378.84
2022-10-24T11:31:23.662Z,100373.47
2022-10-24T11:32:38.785Z,100378.70
2022-10-24T11:33:52.162Z,100368.95
2022-10-24T11:35:05.035Z,100373.34
2022-10-24T11:36:16.913Z,100375.65
2022-10-24T11:37:44.322Z,100374.67
2022-10-24T11:38:52.002Z,100372.56
2022-10-24T11:40:01.839Z,100371.27
2022-10-24T11:41:12.137Z,100377.34
2022-10-24T11:42:24.784Z,100381.73
2022-10-24T11:43:36.532Z,100379.86
2022-10-24T11:44:46.142Z,100376.94
2022-10-24T11:45:59.188Z,100381.28
2022-10-24T11:47:14.148Z,100381.69
2022-10-24T11:48:23.968Z,100373.47
2022-10-24T11:49:50.611Z,100376.69
2022-10-24T11:50:59.355Z,100377.92
2022-10-24T11:52:09.936Z,100371.27
2022-10-24T11:53:17.934Z,100377.09
2022-10-24T11:54:23.573Z,100378.52
2022-10-24T11:55:27.772Z,100380.88
2022-10-24T11:56:34.073Z,100382.41
2022-10-24T11:57:37.186Z,100384.71
2022-10-24T11:58:42.569Z,100375.97
2022-10-24T11:59:47.309Z,100379.63
2022-10-24T12:00:54.593Z,100386.88
2022-10-24T12:02:05.304Z,100393.77
2022-10-24T12:03:09.636Z,100386.16
2022-10-24T12:04:24.914Z,100379.61
2022-10-24T12:05:49.128Z,100379.48
2022-10-24T12:07:00.049Z,100374.45
2022-10-24T12:08:10.970Z,100373.41
2022-10-24T12:09:18.245Z,100371.64
2022-10-24T12:10:23.583Z,100380.03
2022-10-24T12:11:46.870Z,100377.81
2022-10-24T12:13:09.425Z,100376.91
2022-10-24T12:14:20.418Z,100374.94
2022-10-24T12:15:46.586Z,100381.73
2022-10-24T12:17:06.061Z,100376.73
2022-10-24T12:18:14.381Z,100372.44
2022-10-24T12:19:23.617Z,100367.27
2022-10-24T12:20:27.767Z,100368.78
2022-10-24T12:21:38.476Z,100365.70
2022-10-24T12:22:44.714Z,100363.63
2022-10-24T12:23:59.584Z,100363.50
2022-10-24T12:25:07.173Z,100364.71
2022-10-24T12:26:13.066Z,100358.91
2022-10-24T12:27:23.364Z,100355.23
2022-10-24T12:28:27.068Z,100355.96
2022-10-24T12:29:34.197Z,100365.70
2022-10-24T12:30:37.734Z,100357.86
2022-10-24T12:31:40.090Z,100357.15
2022-10-24T12:32:48.165Z,100359.28
2022-10-24T12:34:10.096Z,100360.27
2022-10-24T12:35:36.247Z,100358.98
2022-10-24T12:36:43.730Z,100351.66
2022-10-24T12:37:47.005Z,100359.15
2022-10-24T12:39:01.502Z,100359.83
2022-10-24T12:40:24.528Z,100363.33